createdAt,value
2018-10-21T00:01:33.073Z,8.20
2018-10-21T00:04:00.222Z,8.50
2018-10-21T00:06:27.418Z,8.40
2018-10-21T00:08:54.576Z,8.70
2018-10-21T00:11:21.744Z,8.43
2018-10-21T00:13:48.887Z,8.30
2018-10-21T00:16:16.105Z,9.00
2018-10-21T00:18:43.283Z,8.80
2018-10-21T00:21:10.496Z,8.80
2018-10-21T00:23:37.612Z,8.40
2018-10-21T00:26:04.869Z,9.17
2018-10-21T00:28:32.110Z,8.27
2018-10-21T00:30:59.274Z,9.23
2018-10-21T00:33:26.451Z,8.50
2018-10-21T00:35:53.602Z,9.13
2018-10-21T00:38:20.822Z,8.83
2018-10-21T00:40:48.045Z,9.33
2018-10-21T00:43:15.295Z,9.07
2018-10-21T00:45:42.443Z,9.30
2018-10-21T00:48:09.594Z,9.40
2018-10-21T00:50:36.758Z,10.13
2018-10-21T00:53:03.915Z,9.17
2018-10-21T00:55:31.075Z,9.87
2018-10-21T00:57:58.243Z,10.47
2018-10-21T01:00:25.408Z,10.33
2018-10-21T01:02:52.575Z,10.00
2018-10-21T01:05:19.780Z,10.57
2018-10-21T01:07:46.951Z,10.30
2018-10-21T01:10:14.134Z,10.20
2018-10-21T01:12:41.622Z,10.37
2018-10-21T01:15:09.802Z,9.47
2018-10-21T01:17:36.990Z,9.57
2018-10-21T01:20:05.358Z,9.17
2018-10-21T01:22:32.519Z,9.67
2018-10-21T01:24:59.709Z,10.03
2018-10-21T01:27:26.858Z,9.63
2018-10-21T01:29:54.015Z,9.43
2018-10-21T01:32:21.185Z,10.33
2018-10-21T01:34:48.371Z,10.23
2018-10-21T01:37:15.566Z,9.47
2018-10-21T01:40:50.978Z,9.03
2018-10-21T01:43:26.770Z,9.37
2018-10-21T01:45:53.936Z,9.77
2018-10-21T01:48:22.255Z,9.30
2018-10-21T01:50:49.433Z,8.90
2018-10-21T01:53:17.366Z,9.30
2018-10-21T01:55:44.542Z,9.53
2018-10-21T01:58:11.770Z,9.77
2018-10-21T02:00:39.539Z,10.17
2018-10-21T02:03:06.772Z,9.30
2018-10-21T02:05:34.617Z,8.90
2018-10-21T02:08:01.870Z,9.30
2018-10-21T02:10:29.025Z,9.07
2018-10-21T02:12:56.415Z,8.73
2018-10-21T02:15:23.687Z,8.40
2018-10-21T02:17:50.907Z,9.00
2018-10-21T02:20:18.677Z,8.70
2018-10-21T02:22:46.439Z,8.77
2018-10-21T02:25:13.710Z,8.10
2018-10-21T02:27:41.552Z,8.93
2018-10-21T02:30:10.766Z,8.50
2018-10-21T02:32:37.946Z,8.40
2018-10-21T02:35:05.515Z,8.60
2018-10-21T02:37:32.665Z,8.40
2018-10-21T02:39:59.840Z,9.63
2018-10-21T02:42:26.997Z,9.50
2018-10-21T02:44:54.258Z,8.70
2018-10-21T02:47:21.424Z,9.60
2018-10-21T02:49:48.626Z,9.27
2018-10-21T02:52:15.791Z,8.90
2018-10-21T02:54:43.491Z,9.13
2018-10-21T02:57:11.676Z,9.43
2018-10-21T02:59:38.832Z,9.53
2018-10-21T03:02:06.098Z,9.13
2018-10-21T03:04:33.253Z,9.83
2018-10-21T03:07:00.487Z,8.40
2018-10-21T03:09:27.822Z,9.50
2018-10-21T03:11:55.124Z,10.13
2018-10-21T03:14:22.302Z,9.60
2018-10-21T03:16:49.498Z,10.00
2018-10-21T03:19:16.747Z,10.00
2018-10-21T03:21:43.907Z,9.27
2018-10-21T03:24:11.066Z,9.77
2018-10-21T03:26:38.310Z,9.37
2018-10-21T03:29:05.589Z,9.70
2018-10-21T03:31:32.741Z,9.40
2018-10-21T03:34:00.103Z,9.73
2018-10-21T03:36:27.062Z,9.47
2018-10-21T03:38:54.249Z,10.17
2018-10-21T03:41:21.463Z,10.07
2018-10-21T03:43:48.666Z,9.70
2018-10-21T03:46:16.311Z,9.77
2018-10-21T03:48:43.499Z,9.50
2018-10-21T03:51:10.861Z,9.60
2018-10-21T03:53:38.025Z,9.10
2018-10-21T03:56:05.202Z,9.87
2018-10-21T03:58:32.370Z,9.80
2018-10-21T04:00:59.549Z,10.03
2018-10-21T04:03:26.711Z,8.83
2018-10-21T04:05:53.869Z,9.17
2018-10-21T04:08:21.047Z,9.57
2018-10-21T04:10:48.201Z,10.10
2018-10-21T04:13:15.368Z,9.97
2018-10-21T04:15:42.544Z,9.93
2018-10-21T04:18:09.699Z,10.03
2018-10-21T04:20:36.858Z,9.80
2018-10-21T04:23:04.471Z,9.60
2018-10-21T04:25:32.846Z,9.80
2018-10-21T04:28:00.946Z,10.57
2018-10-21T04:30:33.198Z,9.93
2018-10-21T04:34:09.447Z,10.30
2018-10-21T04:36:36.614Z,10.70
2018-10-21T04:39:34.551Z,10.90
2018-10-21T04:42:01.753Z,10.70
2018-10-21T04:44:29.051Z,10.30
2018-10-21T04:46:56.427Z,10.10
2018-10-21T04:49:23.420Z,9.80
2018-10-21T04:51:50.594Z,9.83
2018-10-21T04:54:17.759Z,10.10
2018-10-21T04:56:44.942Z,9.70
2018-10-21T04:59:12.087Z,9.70
2018-10-21T05:01:39.254Z,10.40
2018-10-21T05:04:06.501Z,10.30
2018-10-21T05:06:33.688Z,10.03
2018-10-21T05:09:00.885Z,10.07
2018-10-21T05:11:28.146Z,9.73
2018-10-21T05:13:55.356Z,10.10
2018-10-21T05:16:22.558Z,9.43
2018-10-21T05:18:49.699Z,9.83
2018-10-21T05:21:16.845Z,9.20
2018-10-21T05:23:44.023Z,10.30
2018-10-21T05:26:11.215Z,10.27
2018-10-21T05:28:38.373Z,9.93
2018-10-21T05:31:05.538Z,10.27
2018-10-21T05:33:32.707Z,10.30
2018-10-21T05:35:59.894Z,10.00
2018-10-21T05:38:27.053Z,9.90
2018-10-21T05:40:54.243Z,9.27
2018-10-21T05:43:21.407Z,9.20
2018-10-21T05:45:48.553Z,9.70
2018-10-21T05:48:15.709Z,9.70
2018-10-21T05:50:42.865Z,9.47
2018-10-21T05:53:10.027Z,9.77
2018-10-21T05:55:37.190Z,10.00
2018-10-21T05:58:04.750Z,9.60
2018-10-21T06:00:31.818Z,10.07
2018-10-21T06:02:59.017Z,10.00
2018-10-21T06:05:33.438Z,9.63
2018-10-21T06:08:00.600Z,10.30
2018-10-21T06:10:27.758Z,9.73
2018-10-21T06:12:54.929Z,9.73
2018-10-21T06:15:22.147Z,9.93
2018-10-21T06:17:49.296Z,9.23
2018-10-21T06:20:23.955Z,10.40
2018-10-21T06:22:51.406Z,9.83
2018-10-21T06:25:18.589Z,9.33
2018-10-21T06:27:45.773Z,9.47
2018-10-21T06:30:13.141Z,10.40
2018-10-21T06:32:40.406Z,8.70
2018-10-21T06:35:08.246Z,9.93
2018-10-21T06:37:35.507Z,9.93
2018-10-21T06:40:02.755Z,9.93
2018-10-21T06:42:30.105Z,9.50
2018-10-21T06:44:57.355Z,9.80
2018-10-21T06:47:24.472Z,10.30
2018-10-21T06:49:51.644Z,9.67
2018-10-21T06:52:18.838Z,10.10
2018-10-21T06:54:46.022Z,10.03
2018-10-21T06:57:13.327Z,9.70
2018-10-21T06:59:40.346Z,9.60
2018-10-21T07:02:07.607Z,10.03
2018-10-21T07:04:34.874Z,9.20
2018-10-21T07:07:08.479Z,9.70
2018-10-21T07:09:35.711Z,10.00
2018-10-21T07:12:02.872Z,9.70
2018-10-21T07:14:30.030Z,9.47
2018-10-21T07:16:57.210Z,10.00
2018-10-21T07:19:24.381Z,9.93
2018-10-21T07:21:51.535Z,10.17
2018-10-21T07:24:18.733Z,11.13
2018-10-21T07:26:45.918Z,10.63
2018-10-21T07:29:13.110Z,10.13
2018-10-21T07:31:40.279Z,10.00
2018-10-21T07:34:07.485Z,10.20
2018-10-21T07:36:34.623Z,10.50
2018-10-21T07:39:01.793Z,10.30
2018-10-21T07:41:28.953Z,10.40
2018-10-21T07:43:56.134Z,10.97
2018-10-21T07:49:09.059Z,10.50
2018-10-21T07:51:38.032Z,9.90
2018-10-21T07:54:19.610Z,10.27
2018-10-21T07:56:52.244Z,10.37
2018-10-21T07:59:23.896Z,10.40
2018-10-21T08:01:59.137Z,10.30
2018-10-21T08:04:30.308Z,10.77
2018-10-21T08:07:05.537Z,10.43
2018-10-21T08:09:32.916Z,11.73
2018-10-21T08:12:00.322Z,11.30
2018-10-21T08:14:27.623Z,11.70
2018-10-21T08:16:54.937Z,11.13
2018-10-21T08:19:23.275Z,12.73
2018-10-21T08:21:50.629Z,12.30
2018-10-21T08:24:17.902Z,11.33
2018-10-21T08:26:45.192Z,12.30
2018-10-21T08:29:19.045Z,12.57
2018-10-21T08:31:46.494Z,12.13
2018-10-21T08:34:13.882Z,12.00
2018-10-21T08:36:41.111Z,10.80
2018-10-21T08:39:08.475Z,11.80
2018-10-21T08:41:35.828Z,11.03
2018-10-21T08:44:03.103Z,8.77
2018-10-21T08:46:30.377Z,10.27
2018-10-21T08:48:57.696Z,10.70
2018-10-21T08:51:25.011Z,11.13
2018-10-21T08:53:52.359Z,9.63
2018-10-21T08:56:19.615Z,10.90
2018-10-21T08:58:46.770Z,11.47
2018-10-21T09:01:14.033Z,10.67
2018-10-21T09:03:41.177Z,10.57
2018-10-21T09:06:08.366Z,10.57
2018-10-21T09:08:35.537Z,10.70
2018-10-21T09:11:02.818Z,10.27
2018-10-21T09:13:29.935Z,10.00
2018-10-21T09:15:57.132Z,10.10
2018-10-21T09:18:24.284Z,9.80
2018-10-21T09:20:51.484Z,9.60
2018-10-21T09:23:18.656Z,9.30
2018-10-21T09:25:45.957Z,9.97
2018-10-21T09:28:13.239Z,9.40
2018-10-21T09:30:40.399Z,10.60
2018-10-21T09:33:07.613Z,10.23
2018-10-21T09:35:34.752Z,8.10
2018-10-21T09:38:01.936Z,9.53
2018-10-21T09:40:29.152Z,10.00
2018-10-21T09:42:56.331Z,10.53
2018-10-21T09:45:23.510Z,10.23
2018-10-21T09:47:50.693Z,9.30
2018-10-21T09:50:17.879Z,9.73
2018-10-21T09:52:45.039Z,9.43
2018-10-21T09:55:19.166Z,9.20
2018-10-21T09:57:47.022Z,9.60
2018-10-21T10:00:19.638Z,9.00
2018-10-21T10:02:53.279Z,9.10
2018-10-21T10:05:20.586Z,9.77
2018-10-21T10:07:47.719Z,8.40
2018-10-21T10:10:14.962Z,7.77
2018-10-21T10:12:42.077Z,8.00
2018-10-21T10:15:09.761Z,8.20
2018-10-21T10:17:37.043Z,8.70
2018-10-21T10:20:04.364Z,7.97
2018-10-21T10:22:31.539Z,8.00
2018-10-21T10:24:58.730Z,8.03
2018-10-21T10:27:25.924Z,7.70
2018-10-21T10:29:53.103Z,8.37
2018-10-21T10:32:20.266Z,7.77
2018-10-21T10:34:47.470Z,6.73
2018-10-21T10:37:14.691Z,7.20
2018-10-21T10:39:41.827Z,7.30
2018-10-21T10:42:09.008Z,6.80
2018-10-21T10:44:36.151Z,6.00
2018-10-21T10:47:03.343Z,6.50
2018-10-21T10:49:30.517Z,6.03
2018-10-21T10:51:57.782Z,6.20
2018-10-21T10:54:24.973Z,6.67
2018-10-21T10:56:52.211Z,6.07
2018-10-21T10:59:19.376Z,5.40
2018-10-21T11:01:46.568Z,5.93
2018-10-21T11:04:13.818Z,6.03
2018-10-21T11:06:40.919Z,6.20
2018-10-21T11:09:08.722Z,6.60
2018-10-21T11:11:35.882Z,5.53
2018-10-21T11:14:04.427Z,4.70
2018-10-21T11:16:31.690Z,5.20
2018-10-21T11:18:59.059Z,5.90
2018-10-21T11:21:26.347Z,5.57
2018-10-21T11:23:53.628Z,4.97
2018-10-21T11:26:20.972Z,4.30
2018-10-21T11:28:48.159Z,5.28
2018-10-21T11:31:15.398Z,5.17
2018-10-21T11:33:42.498Z,5.40
2018-10-21T11:36:09.664Z,4.57
2018-10-21T11:38:36.882Z,3.87
2018-10-21T11:41:04.059Z,3.50
2018-10-21T11:43:31.234Z,3.90
2018-10-21T11:45:58.467Z,4.37
2018-10-21T11:48:25.634Z,3.80
2018-10-21T11:50:52.838Z,4.00
2018-10-21T11:53:20.020Z,4.10
2018-10-21T11:55:47.211Z,3.87
2018-10-21T11:58:15.455Z,4.13
2018-10-21T12:00:43.483Z,3.97
2018-10-21T12:03:11.319Z,3.63
2018-10-21T12:05:38.803Z,4.00
2018-10-21T12:08:05.971Z,3.77
2018-10-21T12:10:33.183Z,3.97
2018-10-21T12:13:00.399Z,3.87
2018-10-21T12:15:27.567Z,3.53
2018-10-21T12:17:54.834Z,3.70
2018-10-21T12:20:22.014Z,3.50
2018-10-21T12:25:22.981Z,3.70
2018-10-21T12:27:50.002Z,3.70
2018-10-21T12:30:17.183Z,4.00
2018-10-21T12:32:44.351Z,4.27
2018-10-21T12:35:12.747Z,3.70
2018-10-21T12:37:40.084Z,3.40
2018-10-21T12:40:08.205Z,3.93
2018-10-21T12:42:35.314Z,3.67
2018-10-21T12:45:02.698Z,3.70
2018-10-21T12:47:29.862Z,4.47
2018-10-21T12:49:57.022Z,3.60
2018-10-21T12:52:24.226Z,3.60
2018-10-21T12:54:51.395Z,3.20
2018-10-21T12:57:18.549Z,3.40
2018-10-21T12:59:45.727Z,3.80
2018-10-21T13:02:12.958Z,3.50
2018-10-21T13:04:40.086Z,3.77
2018-10-21T13:07:07.308Z,3.33
2018-10-21T13:09:34.449Z,4.23
2018-10-21T13:12:01.658Z,3.70
2018-10-21T13:14:28.843Z,3.80
2018-10-21T13:16:56.126Z,3.60
2018-10-21T13:19:23.358Z,3.33
2018-10-21T13:21:50.530Z,3.93
2018-10-21T13:24:17.724Z,3.40
2018-10-21T13:26:44.889Z,3.30
2018-10-21T13:29:12.067Z,3.20
2018-10-21T13:31:39.242Z,3.40
2018-10-21T13:34:06.432Z,3.40
2018-10-21T13:36:33.602Z,3.37
2018-10-21T13:39:00.781Z,4.80
2018-10-21T13:41:27.973Z,3.43
2018-10-21T13:43:55.191Z,3.33
2018-10-21T13:46:22.433Z,3.40
2018-10-21T13:48:49.561Z,2.90
2018-10-21T13:51:16.721Z,3.47
2018-10-21T13:53:43.890Z,2.93
2018-10-21T13:56:11.049Z,3.17
2018-10-21T13:58:38.327Z,2.60
2018-10-21T14:01:05.616Z,3.20
2018-10-21T14:03:32.698Z,2.90
2018-10-21T14:05:59.850Z,2.87
2018-10-21T14:08:27.034Z,2.80
2018-10-21T14:10:54.199Z,2.57
2018-10-21T14:13:21.364Z,2.60
2018-10-21T14:15:48.562Z,2.83
2018-10-21T14:18:15.701Z,2.87
2018-10-21T14:20:42.944Z,3.13
2018-10-21T14:23:10.092Z,3.03
2018-10-21T14:25:37.282Z,2.80
2018-10-21T14:28:04.637Z,2.60
2018-10-21T14:30:31.901Z,2.80
2018-10-21T14:32:58.971Z,2.80
2018-10-21T14:35:26.249Z,2.83
2018-10-21T14:37:53.497Z,3.10
2018-10-21T14:40:20.592Z,2.90
2018-10-21T14:42:47.762Z,2.60
2018-10-21T14:45:14.993Z,2.70
2018-10-21T14:47:42.114Z,2.70
2018-10-21T14:50:10.203Z,2.60
2018-10-21T14:52:37.478Z,2.67
2018-10-21T14:55:04.905Z,2.67
2018-10-21T14:57:32.077Z,2.60
2018-10-21T14:59:59.370Z,2.57
2018-10-21T15:02:26.520Z,2.80
2018-10-21T15:04:53.706Z,2.57
2018-10-21T15:07:20.882Z,2.90
2018-10-21T15:09:48.150Z,2.03
2018-10-21T15:12:15.326Z,2.40
2018-10-21T15:14:42.426Z,2.30
2018-10-21T15:17:09.588Z,2.43
2018-10-21T15:19:36.747Z,2.30
2018-10-21T15:22:04.018Z,2.50
2018-10-21T15:24:31.114Z,2.00
2018-10-21T15:26:58.310Z,1.93
2018-10-21T15:29:25.470Z,2.10
2018-10-21T15:31:52.630Z,2.50
2018-10-21T15:34:19.826Z,2.40
2018-10-21T15:36:46.991Z,2.50
2018-10-21T15:39:14.134Z,2.10
2018-10-21T15:41:41.299Z,2.20
2018-10-21T15:44:08.677Z,2.33
2018-10-21T15:46:35.843Z,2.10
2018-10-21T15:49:03.009Z,2.27
2018-10-21T15:51:30.176Z,1.90
2018-10-21T15:53:57.454Z,2.47
2018-10-21T15:56:24.678Z,2.30
2018-10-21T15:58:51.838Z,2.37
2018-10-21T16:01:19.031Z,2.10
2018-10-21T16:03:46.413Z,2.13
2018-10-21T16:06:13.567Z,2.30
2018-10-21T16:08:40.726Z,1.90
2018-10-21T16:11:08.178Z,2.30
2018-10-21T16:13:35.433Z,2.30
2018-10-21T16:16:02.684Z,2.23
2018-10-21T16:18:29.850Z,2.37
2018-10-21T16:20:57.013Z,2.40
2018-10-21T16:23:24.172Z,2.80
2018-10-21T16:25:51.344Z,2.20
2018-10-21T16:28:18.534Z,2.70
2018-10-21T16:30:45.651Z,2.43
2018-10-21T16:33:12.838Z,2.70
2018-10-21T16:35:40.007Z,2.47
2018-10-21T16:38:07.153Z,2.67
2018-10-21T16:40:34.327Z,2.70
2018-10-21T16:43:01.481Z,2.80
2018-10-21T16:45:28.642Z,2.27
2018-10-21T16:47:55.855Z,2.40
2018-10-21T16:50:22.995Z,2.33
2018-10-21T16:52:50.221Z,2.70
2018-10-21T16:55:17.912Z,2.70
2018-10-21T16:57:45.080Z,2.47
2018-10-21T17:00:14.584Z,2.70
2018-10-21T17:02:42.122Z,2.30
2018-10-21T17:05:09.599Z,2.70
2018-10-21T17:07:36.926Z,2.50
2018-10-21T17:10:04.630Z,2.77
2018-10-21T17:12:31.474Z,2.67
2018-10-21T17:14:58.629Z,2.70
2018-10-21T17:17:25.802Z,3.03
2018-10-21T17:19:52.960Z,2.23
2018-10-21T17:22:20.138Z,2.23
2018-10-21T17:24:47.923Z,2.40
2018-10-21T17:27:15.090Z,2.53
2018-10-21T17:29:42.267Z,3.83
2018-10-21T17:32:09.419Z,9.90
2018-10-21T17:34:36.575Z,10.00
2018-10-21T17:37:03.834Z,9.93
2018-10-21T17:39:30.929Z,11.00
2018-10-21T17:41:58.249Z,10.60
2018-10-21T17:44:25.402Z,7.50
2018-10-21T17:46:52.549Z,5.70
2018-10-21T17:49:19.721Z,5.27
2018-10-21T17:51:46.906Z,3.43
2018-10-21T17:54:14.130Z,3.77
2018-10-21T17:56:46.712Z,3.53
2018-10-21T17:59:14.648Z,3.43
2018-10-21T18:01:41.931Z,7.50
2018-10-21T18:04:09.164Z,15.30
2018-10-21T18:06:36.286Z,13.00
2018-10-21T18:09:03.548Z,7.53
2018-10-21T18:11:30.723Z,5.70
2018-10-21T18:13:57.925Z,4.40
2018-10-21T18:16:25.047Z,3.90
2018-10-21T18:18:52.502Z,3.27
2018-10-21T18:21:19.671Z,2.40
2018-10-21T18:23:46.826Z,2.57
2018-10-21T18:26:14.127Z,2.90
2018-10-21T18:28:41.198Z,3.10
2018-10-21T18:31:08.382Z,2.97
2018-10-21T18:33:35.526Z,2.83
2018-10-21T18:36:02.754Z,3.50
2018-10-21T18:38:29.918Z,3.30
2018-10-21T18:40:57.289Z,3.37
2018-10-21T18:43:24.303Z,3.40
2018-10-21T18:45:51.488Z,3.60
2018-10-21T18:48:18.621Z,3.50
2018-10-21T18:50:45.842Z,3.03
2018-10-21T18:53:13.003Z,3.37
2018-10-21T18:55:40.175Z,3.43
2018-10-21T18:58:07.435Z,3.30
2018-10-21T19:00:34.617Z,3.40
2018-10-21T19:03:01.870Z,3.87
2018-10-21T19:05:29.091Z,3.20
2018-10-21T19:07:56.273Z,2.97
2018-10-21T19:10:23.548Z,3.17
2018-10-21T19:13:00.049Z,3.07
2018-10-21T19:15:18.039Z,2.90
2018-10-21T19:17:45.199Z,2.97
2018-10-21T19:20:13.799Z,3.07
2018-10-21T19:22:41.149Z,3.07
2018-10-21T19:25:09.141Z,3.17
2018-10-21T19:27:36.296Z,3.23
2018-10-21T19:30:03.485Z,3.47
2018-10-21T19:32:30.626Z,3.00
2018-10-21T19:34:57.788Z,2.93
2018-10-21T19:37:24.934Z,3.27
2018-10-21T19:39:52.090Z,3.17
2018-10-21T19:42:19.272Z,3.27
2018-10-21T19:44:46.410Z,3.40
2018-10-21T19:47:13.569Z,3.60
2018-10-21T19:49:40.739Z,3.27
2018-10-21T19:52:08.049Z,3.30
2018-10-21T19:54:35.131Z,3.40
2018-10-21T19:57:02.311Z,3.63
2018-10-21T19:59:29.510Z,3.80
2018-10-21T20:01:56.686Z,3.73
2018-10-21T20:04:23.837Z,4.27
2018-10-21T20:06:51.049Z,4.50
2018-10-21T20:09:18.219Z,4.70
2018-10-21T20:11:45.374Z,4.87
2018-10-21T20:14:12.542Z,4.30
2018-10-21T20:16:39.706Z,4.60
2018-10-21T20:19:07.249Z,4.70
2018-10-21T20:21:34.418Z,5.37
2018-10-21T20:24:01.711Z,5.30
2018-10-21T20:26:28.938Z,7.07
2018-10-21T20:28:56.141Z,9.40
2018-10-21T20:31:23.403Z,10.37
2018-10-21T20:33:50.608Z,11.13
2018-10-21T20:36:17.727Z,10.37
2018-10-21T20:38:44.886Z,6.33
2018-10-21T20:41:12.042Z,6.07
2018-10-21T20:43:39.232Z,6.07
2018-10-21T20:46:06.456Z,5.43
2018-10-21T20:48:33.554Z,4.80
2018-10-21T20:51:00.787Z,4.97
2018-10-21T20:53:27.903Z,4.70
2018-10-21T20:55:55.062Z,4.60
2018-10-21T20:58:22.319Z,4.90
2018-10-21T21:00:49.419Z,5.40
2018-10-21T21:03:16.624Z,4.70
2018-10-21T21:05:43.792Z,4.90
2018-10-21T21:08:11.003Z,4.60
2018-10-21T21:10:38.142Z,5.03
2018-10-21T21:13:05.282Z,5.03
2018-10-21T21:15:32.458Z,6.13
2018-10-21T21:17:59.632Z,14.50
2018-10-21T21:20:26.846Z,14.80
2018-10-21T21:22:54.126Z,10.77
2018-10-21T21:25:21.298Z,9.10
2018-10-21T21:27:48.466Z,7.63
2018-10-21T21:30:15.745Z,8.03
2018-10-21T21:32:42.878Z,7.63
2018-10-21T21:35:10.070Z,6.30
2018-10-21T21:37:37.770Z,6.33
2018-10-21T21:40:06.029Z,6.10
2018-10-21T21:42:33.134Z,5.77
2018-10-21T21:45:00.295Z,5.83
2018-10-21T21:47:27.469Z,5.27
2018-10-21T21:49:54.641Z,5.20
2018-10-21T21:52:21.826Z,5.43
2018-10-21T21:54:48.972Z,5.80
2018-10-21T21:57:16.165Z,5.43
2018-10-21T21:59:43.355Z,5.30
2018-10-21T22:02:10.545Z,5.20
2018-10-21T22:04:37.702Z,5.27
2018-10-21T22:07:04.918Z,4.80
2018-10-21T22:09:32.122Z,5.07
2018-10-21T22:11:59.282Z,4.80
2018-10-21T22:14:26.410Z,4.80
2018-10-21T22:16:53.600Z,4.50
2018-10-21T22:19:20.750Z,4.97
2018-10-21T22:21:47.933Z,4.93
2018-10-21T22:24:15.123Z,4.90
2018-10-21T22:26:42.327Z,4.87
2018-10-21T22:29:09.492Z,4.53
2018-10-21T22:31:36.673Z,4.60
2018-10-21T22:34:03.938Z,5.30
2018-10-21T22:36:31.046Z,4.83
2018-10-21T22:38:58.213Z,4.93
2018-10-21T22:41:25.375Z,5.00
2018-10-21T22:43:52.559Z,5.13
2018-10-21T22:46:20.080Z,4.30
2018-10-21T22:48:47.353Z,4.80
2018-10-21T22:51:14.548Z,4.80
2018-10-21T22:53:41.723Z,4.43
2018-10-21T22:56:08.889Z,4.77
2018-10-21T22:58:36.064Z,4.90
2018-10-21T23:01:03.284Z,5.03
2018-10-21T23:03:30.460Z,5.20
2018-10-21T23:05:57.641Z,5.33
2018-10-21T23:08:24.810Z,5.50
2018-10-21T23:10:52.000Z,5.40
2018-10-21T23:13:19.202Z,5.50
2018-10-21T23:15:46.391Z,5.90
2018-10-21T23:18:13.727Z,5.83
2018-10-21T23:20:40.843Z,5.33
2018-10-21T23:23:08.007Z,5.30
2018-10-21T23:25:35.198Z,5.60
2018-10-21T23:28:02.415Z,5.20
2018-10-21T23:30:29.546Z,5.20
2018-10-21T23:32:56.697Z,5.40
2018-10-21T23:35:23.890Z,5.43
2018-10-21T23:37:51.133Z,5.53
2018-10-21T23:40:18.421Z,4.90
2018-10-21T23:42:45.593Z,5.13
2018-10-21T23:45:12.769Z,4.80
2018-10-21T23:47:39.935Z,5.13
2018-10-21T23:50:07.330Z,5.10
2018-10-21T23:52:34.503Z,5.10
2018-10-21T23:55:01.702Z,5.10
2018-10-21T23:57:28.863Z,5.03
2018-10-21T23:59:56.048Z,4.60
